createdAt,value
2018-07-04T00:03:18.827Z,23.2
2018-07-04T00:08:17.162Z,23.2
2018-07-04T00:13:15.192Z,23.2
2018-07-04T00:18:13.460Z,23.2
2018-07-04T00:23:11.374Z,23.1
2018-07-04T00:28:09.299Z,23.1
2018-07-04T00:33:07.630Z,23.1
2018-07-04T00:38:05.510Z,22.6
2018-07-04T00:43:03.756Z,23.1
2018-07-04T00:48:02.162Z,23.1
2018-07-04T00:53:00.353Z,23
2018-07-04T00:57:58.494Z,23
2018-07-04T01:02:56.458Z,23
2018-07-04T01:07:54.595Z,22.9
2018-07-04T01:12:52.295Z,22.9
2018-07-04T01:17:50.525Z,22.4
2018-07-04T01:22:48.669Z,22.8
2018-07-04T01:27:47.072Z,22.3
2018-07-04T01:32:45.016Z,22.8
2018-07-04T01:37:43.330Z,22.7
2018-07-04T01:42:41.423Z,22.6
2018-07-04T01:47:39.871Z,22.6
2018-07-04T01:52:37.926Z,22.6
2018-07-04T01:57:36.395Z,22.5
2018-07-04T02:02:34.397Z,22.5
2018-07-04T02:07:32.584Z,22.5
2018-07-04T02:12:30.818Z,22.4
2018-07-04T02:17:29.043Z,22.4
2018-07-04T02:22:26.980Z,22.4
2018-07-04T02:27:25.028Z,22.3
2018-07-04T02:32:22.501Z,22.3
2018-07-04T02:37:20.920Z,22.3
2018-07-04T02:42:18.759Z,22.2
2018-07-04T02:47:16.769Z,22.2
2018-07-04T02:52:15.086Z,22.2
2018-07-04T02:57:13.304Z,22.1
2018-07-04T03:02:11.339Z,22.1
2018-07-04T03:07:09.455Z,22.1
2018-07-04T03:12:07.768Z,22
2018-07-04T03:17:05.757Z,22
2018-07-04T03:22:03.712Z,21.5
2018-07-04T03:27:02.034Z,22
2018-07-04T03:32:00.306Z,21.4
2018-07-04T03:36:58.461Z,22
2018-07-04T03:41:56.724Z,21.4
2018-07-04T03:46:54.746Z,21.9
2018-07-04T03:51:52.634Z,21.9
2018-07-04T03:56:50.139Z,21.9
2018-07-04T04:01:48.125Z,21.9
2018-07-04T04:06:45.382Z,21.8
2018-07-04T04:11:43.389Z,21.9
2018-07-04T04:16:41.646Z,21.9
2018-07-04T04:21:40.177Z,21.8
2018-07-04T04:26:37.519Z,21.7
2018-07-04T04:31:35.413Z,21.4
2018-07-04T04:36:33.449Z,21.9
2018-07-04T04:41:31.455Z,21.9
2018-07-04T04:46:29.852Z,21.9
2018-07-04T04:51:27.851Z,22
2018-07-04T04:56:26.009Z,22
2018-07-04T05:01:24.519Z,22
2018-07-04T05:06:22.487Z,22
2018-07-04T05:11:20.514Z,22.1
2018-07-04T05:16:18.811Z,22.2
2018-07-04T05:21:16.478Z,22.2
2018-07-04T05:26:14.595Z,22.3
2018-07-04T05:31:12.412Z,22.3
2018-07-04T05:36:10.768Z,22.4
2018-07-04T05:41:08.665Z,22.4
2018-07-04T05:46:07.190Z,22.5
2018-07-04T05:51:05.378Z,22.5
2018-07-04T05:56:03.714Z,22.6
2018-07-04T06:01:01.776Z,22.6
2018-07-04T06:05:59.592Z,22.7
2018-07-04T06:10:57.571Z,22.8
2018-07-04T06:15:55.299Z,22.8
2018-07-04T06:20:53.491Z,22.8
2018-07-04T06:25:51.141Z,22.8
2018-07-04T06:30:49.238Z,22.9
2018-07-04T06:35:47.259Z,22.9
2018-07-04T06:40:45.273Z,23
2018-07-04T06:45:44.268Z,22.6
2018-07-04T06:50:42.034Z,22.6
2018-07-04T06:55:39.576Z,23.2
2018-07-04T07:00:37.597Z,23.2
2018-07-04T07:05:35.341Z,23.2
2018-07-04T07:10:33.639Z,23.3
2018-07-04T07:15:31.309Z,23.3
2018-07-04T07:20:29.447Z,22.9
2018-07-04T07:25:27.634Z,23.4
2018-07-04T07:30:25.674Z,23
2018-07-04T07:35:23.693Z,23.6
2018-07-04T07:40:21.822Z,23.7
2018-07-04T07:45:19.896Z,23.7
2018-07-04T07:50:17.910Z,23.8
2018-07-04T07:55:15.891Z,23.9
2018-07-04T08:00:13.538Z,24
2018-07-04T08:05:11.636Z,24
2018-07-04T08:10:09.950Z,24
2018-07-04T08:15:08.338Z,23.6
2018-07-04T08:20:06.263Z,23.7
2018-07-04T08:25:04.151Z,24.2
2018-07-04T08:30:02.244Z,24.3
2018-07-04T08:35:00.394Z,24.4
2018-07-04T08:39:58.494Z,24.3
2018-07-04T08:44:56.706Z,24.5
2018-07-04T08:49:54.719Z,24.6
2018-07-04T08:54:53.105Z,24.7
2018-07-04T08:59:51.425Z,24.5
2018-07-04T09:04:49.751Z,24.9
2018-07-04T09:09:47.993Z,25
2018-07-04T09:14:46.776Z,25.1
2018-07-04T09:19:44.850Z,25.2
2018-07-04T09:24:43.171Z,25.3
2018-07-04T09:29:41.281Z,25.4
2018-07-04T09:34:39.448Z,25.6
2018-07-04T09:39:37.690Z,25.8
2018-07-04T09:44:35.938Z,25.9
2018-07-04T09:49:34.411Z,26
2018-07-04T09:54:33.026Z,26.1
2018-07-04T09:59:30.911Z,26.3
2018-07-04T10:04:29.371Z,26.4
2018-07-04T10:09:27.598Z,26.6
2018-07-04T10:14:25.774Z,26.7
2018-07-04T10:19:24.095Z,26.8
2018-07-04T10:24:22.509Z,26.9
2018-07-04T10:29:20.855Z,26.8
2018-07-04T10:34:18.562Z,26.9
2018-07-04T10:39:17.294Z,27
2018-07-04T10:44:15.991Z,27.1
2018-07-04T10:49:14.211Z,27.2
2018-07-04T10:54:12.597Z,27.2
2018-07-04T10:59:10.254Z,27.3
2018-07-04T11:04:09.004Z,27.3
2018-07-04T11:09:07.458Z,27.4
2018-07-04T11:14:05.389Z,27.4
2018-07-04T11:19:03.848Z,27.3
2018-07-04T11:24:02.086Z,27.3
2018-07-04T11:29:00.709Z,27.3
2018-07-04T11:33:58.787Z,27.3
2018-07-04T11:38:57.185Z,27.3
2018-07-04T11:43:55.273Z,27.3
2018-07-04T11:48:53.782Z,27.2
2018-07-04T11:53:51.835Z,27.2
2018-07-04T11:58:50.134Z,26.9
2018-07-04T12:03:48.214Z,26.7
2018-07-04T12:08:46.580Z,26.7
2018-07-04T12:13:44.913Z,26.6
2018-07-04T12:18:44.255Z,26.6
2018-07-04T12:23:42.253Z,26.7
2018-07-04T12:28:40.424Z,26.9
2018-07-04T12:33:38.889Z,27.1
2018-07-04T12:38:37.687Z,27.5
2018-07-04T12:43:36.655Z,27.4
2018-07-04T12:48:35.034Z,28.2
2018-07-04T12:53:33.115Z,27.9
2018-07-04T12:58:31.787Z,28.6
2018-07-04T13:03:30.371Z,28.7
2018-07-04T13:08:28.610Z,28.8
2018-07-04T13:13:26.542Z,29.6
2018-07-04T13:18:25.575Z,30
2018-07-04T13:23:24.361Z,30.4
2018-07-04T13:28:22.663Z,30.2
2018-07-04T13:33:20.361Z,30
2018-07-04T13:38:18.433Z,29.8
2018-07-04T13:43:16.367Z,29.5
2018-07-04T13:48:14.550Z,29.4
2018-07-04T13:53:12.805Z,29.2
2018-07-04T13:58:11.095Z,28.8
2018-07-04T14:03:09.033Z,28.6
2018-07-04T14:08:08.341Z,29
2018-07-04T14:13:06.340Z,29.1
2018-07-04T14:18:04.157Z,28.8
2018-07-04T14:23:02.400Z,29.3
2018-07-04T14:28:00.336Z,28.6
2018-07-04T14:32:58.372Z,28.8
2018-07-04T14:37:56.478Z,28.6
2018-07-04T14:42:54.614Z,28.5
2018-07-04T14:47:51.744Z,28.2
2018-07-04T14:52:49.733Z,28
2018-07-04T14:57:47.761Z,27.7
2018-07-04T15:02:45.722Z,27.5
2018-07-04T15:07:43.357Z,27.3
2018-07-04T15:12:41.160Z,27
2018-07-04T15:17:36.931Z,26.8
2018-07-04T15:22:34.634Z,26.5
2018-07-04T15:27:33.897Z,25.9
2018-07-04T15:32:32.328Z,25.3
2018-07-04T15:37:29.971Z,25.1
2018-07-04T15:42:27.816Z,25
2018-07-04T15:47:25.797Z,24.8
2018-07-04T15:52:23.773Z,24.7
2018-07-04T15:57:21.444Z,24.5
2018-07-04T16:02:19.157Z,24.3
2018-07-04T16:07:16.870Z,24.1
2018-07-04T16:12:14.770Z,23.9
2018-07-04T16:17:12.351Z,23.1
2018-07-04T16:22:10.167Z,23.6
2018-07-04T16:27:08.169Z,23.1
2018-07-04T16:32:05.714Z,23.1
2018-07-04T16:37:03.830Z,23
2018-07-04T16:42:01.704Z,23.5
2018-07-04T16:46:59.906Z,23.4
2018-07-04T16:51:57.854Z,23.4
2018-07-04T16:56:55.906Z,23.4
2018-07-04T17:01:53.931Z,23.3
2018-07-04T17:06:51.754Z,23.3
2018-07-04T17:11:49.942Z,22.7
2018-07-04T17:16:47.693Z,23.1
2018-07-04T17:21:45.196Z,23
2018-07-04T17:26:43.029Z,22.9
2018-07-04T17:31:40.801Z,22.8
2018-07-04T17:36:38.760Z,22.8
2018-07-04T17:41:36.440Z,22.8
2018-07-04T17:46:34.600Z,22.8
2018-07-04T17:51:32.295Z,22.8
2018-07-04T17:56:30.291Z,22.3
2018-07-04T18:01:28.717Z,22.3
2018-07-04T18:06:26.738Z,22.7
2018-07-04T18:11:25.020Z,22.7
2018-07-04T18:16:22.790Z,22.5
2018-07-04T18:21:20.828Z,22.2
2018-07-04T18:26:18.746Z,22.5
2018-07-04T18:31:16.733Z,22.4
2018-07-04T18:36:14.333Z,21.9
2018-07-04T18:41:12.168Z,22.4
2018-07-04T18:46:10.091Z,22.3
2018-07-04T18:51:07.731Z,22.3
2018-07-04T18:56:05.709Z,22.3
2018-07-04T19:01:03.804Z,22.3
2018-07-04T19:06:01.484Z,22.3
2018-07-04T19:10:59.433Z,22.3
2018-07-04T19:15:56.914Z,22.1
2018-07-04T19:20:54.517Z,22.2
2018-07-04T19:25:52.674Z,22.2
2018-07-04T19:30:51.135Z,21.7
2018-07-04T19:35:49.097Z,21.6
2018-07-04T19:40:47.117Z,22.1
2018-07-04T19:45:44.809Z,22.1
2018-07-04T19:50:42.719Z,22.1
2018-07-04T19:55:40.582Z,22.1
2018-07-04T20:00:38.446Z,22
2018-07-04T20:05:36.402Z,21.8
2018-07-04T20:10:34.546Z,22
2018-07-04T20:15:33.474Z,21.9
2018-07-04T20:20:31.321Z,21.9
2018-07-04T20:25:29.397Z,21.9
2018-07-04T20:30:27.458Z,21.8
2018-07-04T20:35:25.573Z,21.8
2018-07-04T20:40:23.560Z,20.9
2018-07-04T20:45:21.517Z,21.8
2018-07-04T20:50:19.879Z,21.3
2018-07-04T20:55:17.702Z,21.8
2018-07-04T21:00:15.614Z,21.8
2018-07-04T21:05:13.507Z,21.8
2018-07-04T21:10:11.657Z,21.7
2018-07-04T21:15:09.567Z,21.7
2018-07-04T21:20:08.008Z,21.7
2018-07-04T21:25:05.993Z,21.2
2018-07-04T21:30:04.281Z,21.6
2018-07-04T21:35:02.423Z,21.6
2018-07-04T21:40:00.356Z,21.6
2018-07-04T21:44:58.395Z,21.5
2018-07-04T21:49:56.317Z,21.5
2018-07-04T21:54:54.372Z,21.5
2018-07-04T21:59:52.237Z,21.5
2018-07-04T22:04:50.082Z,20.9
2018-07-04T22:09:47.981Z,21.4
2018-07-04T22:14:45.784Z,20.8
2018-07-04T22:19:43.801Z,21.3
2018-07-04T22:24:41.891Z,21.3
2018-07-04T22:29:40.223Z,21.2
2018-07-04T22:34:37.925Z,21.2
2018-07-04T22:39:35.934Z,21.1
2018-07-04T22:44:34.115Z,21.1
2018-07-04T22:49:31.957Z,21
2018-07-04T22:54:30.008Z,21
2018-07-04T22:59:28.018Z,21
2018-07-04T23:04:26.285Z,20.9
2018-07-04T23:09:24.611Z,20.9
2018-07-04T23:14:22.613Z,20.9
2018-07-04T23:19:20.814Z,20.9
2018-07-04T23:24:19.075Z,20.9
2018-07-04T23:29:16.997Z,20.9
2018-07-04T23:34:15.282Z,20.9
2018-07-04T23:39:13.147Z,20.8
2018-07-04T23:44:11.221Z,20.8
2018-07-04T23:49:08.946Z,20.8
2018-07-04T23:54:07.228Z,20.8
2018-07-04T23:59:05.065Z,20.8
